Terminal Aerodrome Forecast
Issued by NWS

Home | Current Version | Previous Version | Text Only | Print | Product List | Glossary On
Versions: 1 2 3 4 5 6 7 8 9 10 11 12 13 14 15 16 17 18 19 20 21 22 23 24 25 26 27 28 29 30 31
144
FTUS41 KOKX 202033 AAB
TAFSWF
TAF AMD
KSWF 202033Z 2021/2124 12004KT P6SM OVC020
     FM202200 15005KT 4SM -RA OVC015
     FM210000 15005KT 2SM -RA BR OVC008
     FM210200 12003KT 1SM -RA BR OVC005
     FM210600 VRB02KT 1SM BR OVC005
     FM211400 27005KT 5SM BR SCT005 BKN012
     FM211800 26005KT P6SM BKN030
      AMD NOT SKED=

USA.gov is the U.S. government's official web portal to all federal, state and local government web resources and services.